createdAt,value
2022-08-03T00:00:58.130Z,28
2022-08-03T00:02:00.781Z,29
2022-08-03T00:03:09.603Z,29
2022-08-03T00:04:12.215Z,31
2022-08-03T00:05:14.327Z,33
2022-08-03T00:06:15.590Z,32
2022-08-03T00:07:18.038Z,32
2022-08-03T00:08:20.240Z,31
2022-08-03T00:09:21.476Z,32
2022-08-03T00:10:23.807Z,32
2022-08-03T00:11:25.084Z,31
2022-08-03T00:12:26.892Z,30
2022-08-03T00:13:29.240Z,30
2022-08-03T00:14:30.756Z,29
2022-08-03T00:15:32.306Z,29
2022-08-03T00:16:33.593Z,29
2022-08-03T00:17:54.393Z,28
2022-08-03T00:18:56.128Z,27
2022-08-03T00:19:57.596Z,26
2022-08-03T00:20:59.126Z,26
2022-08-03T00:22:00.692Z,27
2022-08-03T00:23:02.529Z,27
2022-08-03T00:24:07.504Z,28
2022-08-03T00:25:09.291Z,30
2022-08-03T00:26:10.318Z,29
2022-08-03T00:27:17.086Z,29
2022-08-03T00:28:19.347Z,29
2022-08-03T00:29:28.158Z,28
2022-08-03T00:30:31.581Z,28
2022-08-03T00:32:00.803Z,29
2022-08-03T00:33:04.317Z,30
2022-08-03T00:34:12.899Z,31
2022-08-03T00:35:51.259Z,30
2022-08-03T00:36:52.606Z,31
2022-08-03T00:37:54.723Z,30
2022-08-03T00:38:56.623Z,29
2022-08-03T00:40:03.748Z,29
2022-08-03T00:41:07.749Z,28
2022-08-03T00:42:09.778Z,28
2022-08-03T00:43:11.101Z,28
2022-08-03T00:44:12.348Z,28
2022-08-03T00:45:13.595Z,30
2022-08-03T00:46:22.222Z,29
2022-08-03T00:47:24.070Z,30
2022-08-03T00:48:34.359Z,30
2022-08-03T00:49:36.894Z,29
2022-08-03T00:50:39.180Z,29
2022-08-03T00:51:40.427Z,29
2022-08-03T00:52:41.513Z,31
2022-08-03T00:53:42.768Z,31
2022-08-03T00:54:44.502Z,30
2022-08-03T00:55:46.464Z,29
2022-08-03T00:57:01.146Z,27
2022-08-03T00:58:02.702Z,27
2022-08-03T00:59:04.520Z,28
2022-08-03T01:00:05.784Z,29
2022-08-03T01:01:08.347Z,28
2022-08-03T01:02:10.421Z,28
2022-08-03T01:03:11.408Z,28
2022-08-03T01:04:12.400Z,27
2022-08-03T01:05:13.952Z,26
2022-08-03T01:06:15.246Z,26
2022-08-03T01:07:16.774Z,27
2022-08-03T01:08:18.076Z,27
2022-08-03T01:09:19.324Z,28
2022-08-03T01:10:20.321Z,29
2022-08-03T01:11:21.926Z,27
2022-08-03T01:12:23.761Z,28
2022-08-03T01:14:20.100Z,28
2022-08-03T01:15:27.972Z,27
2022-08-03T01:16:37.531Z,28
2022-08-03T01:17:39.058Z,27
2022-08-03T01:18:42.172Z,26
2022-08-03T01:19:43.698Z,26
2022-08-03T01:20:45.769Z,25
2022-08-03T01:21:53.118Z,24
2022-08-03T01:22:55.668Z,24
2022-08-03T01:23:57.728Z,25
2022-08-03T01:25:00.123Z,26
2022-08-03T01:26:01.686Z,27
2022-08-03T01:27:03.735Z,28
2022-08-03T01:28:04.759Z,29
2022-08-03T01:29:06.337Z,29
2022-08-03T01:30:07.327Z,29
2022-08-03T01:31:08.643Z,28
2022-08-03T01:33:03.590Z,27
2022-08-03T01:34:14.896Z,27
2022-08-03T01:35:17.007Z,27
2022-08-03T01:36:21.268Z,27
2022-08-03T01:37:23.079Z,28
2022-08-03T01:38:24.624Z,29
2022-08-03T01:39:26.980Z,27
2022-08-03T01:40:28.590Z,28
2022-08-03T01:41:30.429Z,28
2022-08-03T01:42:32.266Z,27
2022-08-03T01:44:31.393Z,26
2022-08-03T01:45:35.124Z,26
2022-08-03T01:46:36.684Z,26
2022-08-03T01:47:39.432Z,26
2022-08-03T01:48:41.303Z,27
2022-08-03T01:49:43.058Z,28
2022-08-03T01:50:45.022Z,27
2022-08-03T01:52:06.054Z,28
2022-08-03T01:53:07.084Z,28
2022-08-03T01:54:08.395Z,26
2022-08-03T01:55:10.219Z,27
2022-08-03T01:56:11.801Z,27
2022-08-03T01:57:13.625Z,26
2022-08-03T01:58:15.152Z,27
2022-08-03T01:59:16.939Z,25
2022-08-03T02:00:20.261Z,25
2022-08-03T02:01:22.377Z,25
2022-08-03T02:02:35.264Z,25
2022-08-03T02:04:01.835Z,24
2022-08-03T02:05:03.661Z,23
2022-08-03T02:07:03.801Z,24
2022-08-03T02:08:05.913Z,25
2022-08-03T02:09:09.600Z,26
2022-08-03T02:10:10.580Z,27
2022-08-03T02:11:11.867Z,26
2022-08-03T02:12:14.537Z,25
2022-08-03T02:13:17.757Z,25
2022-08-03T02:14:19.590Z,25
2022-08-03T02:15:22.801Z,25
2022-08-03T02:16:24.317Z,26
2022-08-03T02:17:40.906Z,25
2022-08-03T02:18:43.763Z,24
2022-08-03T02:19:49.202Z,24
2022-08-03T02:20:51.263Z,23
2022-08-03T02:22:02.054Z,24
2022-08-03T02:23:04.960Z,23
2022-08-03T02:24:06.470Z,23
2022-08-03T02:25:08.005Z,24
2022-08-03T02:26:09.788Z,26
2022-08-03T02:27:10.786Z,26
2022-08-03T02:28:14.819Z,27
2022-08-03T02:29:16.291Z,25
2022-08-03T02:30:17.875Z,24
2022-08-03T02:31:19.140Z,24
2022-08-03T02:32:20.731Z,23
2022-08-03T02:33:22.799Z,23
2022-08-03T02:34:25.436Z,21
2022-08-03T02:35:27.279Z,22
2022-08-03T02:36:32.123Z,23
2022-08-03T02:37:33.957Z,24
2022-08-03T02:38:35.752Z,24
2022-08-03T02:39:37.641Z,22
2022-08-03T02:40:38.887Z,22
2022-08-03T02:41:41.233Z,22
2022-08-03T02:42:43.305Z,23
2022-08-03T02:44:07.731Z,24
2022-08-03T02:45:12.692Z,24
2022-08-03T02:46:15.078Z,24
2022-08-03T02:47:16.102Z,22
2022-08-03T02:48:17.667Z,21
2022-08-03T02:49:52.731Z,21
2022-08-03T02:50:54.211Z,21
2022-08-03T02:51:55.769Z,22
2022-08-03T02:52:57.340Z,22
2022-08-03T02:53:58.901Z,23
2022-08-03T02:55:00.180Z,24
2022-08-03T02:56:01.962Z,24
2022-08-03T02:57:03.825Z,25
2022-08-03T02:58:05.629Z,24
2022-08-03T02:59:07.540Z,24
2022-08-03T03:00:08.787Z,25
2022-08-03T03:01:10.295Z,23
2022-08-03T03:02:11.818Z,24
2022-08-03T03:03:14.450Z,24
2022-08-03T03:04:19.884Z,24
2022-08-03T03:05:59.705Z,25
2022-08-03T03:07:08.706Z,25
2022-08-03T03:08:29.214Z,24
2022-08-03T03:09:43.815Z,24
2022-08-03T03:10:45.342Z,24
2022-08-03T03:11:46.906Z,26
2022-08-03T03:12:48.655Z,26
2022-08-03T03:13:50.190Z,26
2022-08-03T03:14:51.701Z,25
2022-08-03T03:15:52.806Z,24
2022-08-03T03:16:58.718Z,23
2022-08-03T03:18:00.050Z,23
2022-08-03T03:19:02.414Z,23
2022-08-03T03:20:03.694Z,24
2022-08-03T03:21:05.476Z,24
2022-08-03T03:22:06.750Z,26
2022-08-03T03:23:08.644Z,25
2022-08-03T03:24:10.682Z,25
2022-08-03T03:25:12.749Z,25
2022-08-03T03:26:14.570Z,24
2022-08-03T03:27:17.518Z,25
2022-08-03T03:28:21.906Z,26
2022-08-03T03:29:26.482Z,27
2022-08-03T03:30:27.759Z,27
2022-08-03T03:31:28.758Z,26
2022-08-03T03:32:32.610Z,26
2022-08-03T03:33:34.397Z,27
2022-08-03T03:34:35.853Z,27
2022-08-03T03:35:42.549Z,26
2022-08-03T03:36:45.756Z,25
2022-08-03T03:37:47.614Z,23
2022-08-03T03:38:49.758Z,22
2022-08-03T03:39:55.282Z,22
2022-08-03T03:40:56.831Z,22
2022-08-03T03:41:58.336Z,23
2022-08-03T03:42:59.876Z,24
2022-08-03T03:44:02.291Z,24
2022-08-03T03:45:03.860Z,24
2022-08-03T03:46:05.671Z,25
2022-08-03T03:47:07.763Z,24
2022-08-03T03:48:09.051Z,24
2022-08-03T03:49:10.946Z,24
2022-08-03T03:50:13.373Z,25
2022-08-03T03:51:14.651Z,26
2022-08-03T03:52:17.706Z,28
2022-08-03T03:53:19.429Z,29
2022-08-03T03:54:21.036Z,28
2022-08-03T03:55:26.262Z,27
2022-08-03T03:56:28.050Z,26
2022-08-03T03:57:30.081Z,24
2022-08-03T03:58:32.152Z,23
2022-08-03T03:59:36.965Z,24
2022-08-03T04:00:39.136Z,25
2022-08-03T04:01:41.571Z,25
2022-08-03T04:02:43.126Z,26
2022-08-03T04:03:45.194Z,26
2022-08-03T04:04:47.044Z,25
2022-08-03T04:05:49.112Z,25
2022-08-03T04:06:50.689Z,26
2022-08-03T04:07:52.166Z,25
2022-08-03T04:08:53.726Z,26
2022-08-03T04:09:59.638Z,26
2022-08-03T04:11:16.083Z,28
2022-08-03T04:12:18.313Z,29
2022-08-03T04:13:19.299Z,27
2022-08-03T04:14:21.678Z,27
2022-08-03T04:15:23.362Z,24
2022-08-03T04:16:25.181Z,24
2022-08-03T04:17:26.972Z,24
2022-08-03T04:18:30.560Z,23
2022-08-03T04:19:32.344Z,25
2022-08-03T04:20:35.026Z,24
2022-08-03T04:21:36.522Z,25
2022-08-03T04:22:38.030Z,26
2022-08-03T04:23:39.299Z,27
2022-08-03T04:24:41.174Z,27
2022-08-03T04:25:42.842Z,27
2022-08-03T04:26:43.874Z,26
2022-08-03T04:28:32.107Z,25
2022-08-03T04:29:34.233Z,24
2022-08-03T04:30:39.320Z,25
2022-08-03T04:31:40.904Z,25
2022-08-03T04:32:49.360Z,23
2022-08-03T04:33:51.487Z,24
2022-08-03T04:34:52.550Z,23
2022-08-03T04:36:03.992Z,23
2022-08-03T04:37:05.511Z,23
2022-08-03T04:38:09.208Z,23
2022-08-03T04:39:10.514Z,23
2022-08-03T04:40:11.493Z,23
2022-08-03T04:41:12.488Z,23
2022-08-03T04:42:13.512Z,25
2022-08-03T04:43:16.314Z,31
2022-08-03T04:44:17.864Z,36
2022-08-03T04:45:19.372Z,43
2022-08-03T04:46:20.919Z,49
2022-08-03T04:47:22.216Z,50
2022-08-03T04:48:24.363Z,49
2022-08-03T04:49:25.941Z,44
2022-08-03T04:50:27.619Z,37
2022-08-03T04:51:28.875Z,31
2022-08-03T04:52:30.708Z,29
2022-08-03T04:53:32.485Z,28
2022-08-03T04:54:34.306Z,32
2022-08-03T04:55:35.859Z,35
2022-08-03T04:56:37.351Z,38
2022-08-03T04:57:39.438Z,43
2022-08-03T04:58:41.578Z,40
2022-08-03T04:59:43.672Z,39
2022-08-03T05:00:45.215Z,36
2022-08-03T05:01:46.873Z,31
2022-08-03T05:02:48.707Z,30
2022-08-03T05:03:50.244Z,29
2022-08-03T05:04:51.506Z,28
2022-08-03T05:06:09.584Z,28
2022-08-03T05:07:25.413Z,29
2022-08-03T05:08:51.380Z,29
2022-08-03T05:10:03.884Z,29
2022-08-03T05:11:18.166Z,28
2022-08-03T05:12:20.783Z,27
2022-08-03T05:13:22.926Z,26
2022-08-03T05:14:28.830Z,25
2022-08-03T05:15:30.978Z,27
2022-08-03T05:16:32.523Z,27
2022-08-03T05:17:34.598Z,27
2022-08-03T05:18:35.931Z,26
2022-08-03T05:19:38.274Z,25
2022-08-03T05:20:40.168Z,24
2022-08-03T05:21:53.273Z,25
2022-08-03T05:22:55.890Z,28
2022-08-03T05:23:57.410Z,28
2022-08-03T05:24:58.988Z,28
2022-08-03T05:26:00.825Z,26
2022-08-03T05:27:02.362Z,26
2022-08-03T05:28:03.899Z,27
2022-08-03T05:29:05.226Z,27
2022-08-03T05:30:34.941Z,28
2022-08-03T05:31:36.293Z,26
2022-08-03T05:32:37.300Z,27
2022-08-03T05:33:38.844Z,26
2022-08-03T05:34:40.950Z,25
2022-08-03T05:36:04.910Z,25
2022-08-03T05:37:06.218Z,23
2022-08-03T05:38:10.016Z,22
2022-08-03T05:39:12.704Z,21
2022-08-03T05:40:14.297Z,21
2022-08-03T05:41:37.596Z,20
2022-08-03T05:42:39.518Z,21
2022-08-03T05:43:41.580Z,22
2022-08-03T05:44:43.750Z,22
2022-08-03T05:45:45.848Z,23
2022-08-03T05:47:14.603Z,22
2022-08-03T05:48:16.863Z,22
2022-08-03T05:49:18.306Z,22
2022-08-03T05:50:20.629Z,20
2022-08-03T05:51:22.243Z,19
2022-08-03T05:52:25.377Z,19
2022-08-03T05:53:28.131Z,17
2022-08-03T05:54:58.279Z,17
2022-08-03T05:56:16.986Z,18
2022-08-03T05:57:21.893Z,18
2022-08-03T05:58:30.221Z,17
2022-08-03T05:59:39.515Z,17
2022-08-03T06:01:00.839Z,18
2022-08-03T06:02:03.029Z,18
2022-08-03T06:03:04.985Z,19
2022-08-03T06:04:10.131Z,20
2022-08-03T06:05:18.759Z,21
2022-08-03T06:06:21.469Z,21
2022-08-03T06:07:24.233Z,21
2022-08-03T06:08:27.015Z,20
2022-08-03T06:10:38.487Z,18
2022-08-03T06:11:41.463Z,19
2022-08-03T06:12:47.253Z,20
2022-08-03T06:13:56.230Z,20
2022-08-03T06:14:58.878Z,22
2022-08-03T06:16:04.080Z,22
2022-08-03T06:17:05.404Z,22
2022-08-03T06:18:07.460Z,23
2022-08-03T06:19:09.015Z,21
2022-08-03T06:20:11.104Z,22
2022-08-03T06:21:16.981Z,20
2022-08-03T06:22:21.820Z,19
2022-08-03T06:23:55.875Z,20
2022-08-03T06:24:58.050Z,19
2022-08-03T06:26:17.980Z,21
2022-08-03T06:27:37.694Z,20
2022-08-03T06:28:55.214Z,20
2022-08-03T06:29:57.638Z,19
2022-08-03T06:30:59.220Z,17
2022-08-03T06:32:01.060Z,17
2022-08-03T06:33:02.608Z,18
2022-08-03T06:34:36.331Z,19
2022-08-03T06:35:42.634Z,20
2022-08-03T06:36:46.792Z,20
2022-08-03T06:37:48.098Z,19
2022-08-03T06:38:49.946Z,18
2022-08-03T06:39:51.856Z,18
2022-08-03T06:40:53.683Z,19
2022-08-03T06:41:55.488Z,19
2022-08-03T06:42:57.409Z,18
2022-08-03T06:44:05.167Z,18
2022-08-03T06:45:06.785Z,16
2022-08-03T06:46:07.787Z,18
2022-08-03T06:47:09.642Z,19
2022-08-03T06:48:10.892Z,20
2022-08-03T06:49:12.421Z,22
2022-08-03T06:50:26.226Z,21
2022-08-03T06:52:07.580Z,20
2022-08-03T06:53:23.588Z,21
2022-08-03T06:54:25.125Z,21
2022-08-03T06:55:35.672Z,22
2022-08-03T06:56:49.540Z,22
2022-08-03T06:57:50.886Z,22
2022-08-03T06:59:04.969Z,22
2022-08-03T07:00:13.473Z,21
2022-08-03T07:01:19.399Z,20
2022-08-03T07:02:21.617Z,19
2022-08-03T07:03:23.758Z,19
2022-08-03T07:04:27.928Z,17
2022-08-03T07:05:29.152Z,18
2022-08-03T07:06:31.010Z,18
2022-08-03T07:07:33.109Z,19
2022-08-03T07:08:35.305Z,20
2022-08-03T07:09:37.421Z,19
2022-08-03T07:10:39.250Z,21
2022-08-03T07:11:41.076Z,21
2022-08-03T07:12:57.477Z,20
2022-08-03T07:13:59.606Z,22
2022-08-03T07:15:04.149Z,21
2022-08-03T07:16:05.708Z,20
2022-08-03T07:17:12.365Z,21
2022-08-03T07:18:13.762Z,20
2022-08-03T07:19:15.006Z,20
2022-08-03T07:20:16.096Z,20
2022-08-03T07:21:17.404Z,19
2022-08-03T07:22:19.330Z,19
2022-08-03T07:23:21.437Z,20
2022-08-03T07:24:23.022Z,20
2022-08-03T07:25:24.699Z,21
2022-08-03T07:26:26.562Z,22
2022-08-03T07:27:28.437Z,20
2022-08-03T07:28:30.481Z,21
2022-08-03T07:29:35.098Z,20
2022-08-03T07:30:36.387Z,20
2022-08-03T07:31:38.021Z,20
2022-08-03T07:32:51.487Z,19
2022-08-03T07:33:52.850Z,20
2022-08-03T07:35:01.853Z,19
2022-08-03T07:36:26.894Z,19
2022-08-03T07:37:28.170Z,22
2022-08-03T07:38:30.253Z,23
2022-08-03T07:39:32.620Z,25
2022-08-03T07:40:34.407Z,26
2022-08-03T07:41:35.724Z,24
2022-08-03T07:42:37.241Z,24
2022-08-03T07:43:38.778Z,23
2022-08-03T07:44:40.062Z,21
2022-08-03T07:45:41.593Z,19
2022-08-03T07:46:43.426Z,17
2022-08-03T07:47:54.820Z,17
2022-08-03T07:48:57.120Z,17
2022-08-03T07:49:59.296Z,19
2022-08-03T07:51:00.285Z,19
2022-08-03T07:52:01.585Z,18
2022-08-03T07:53:02.890Z,19
2022-08-03T07:54:05.374Z,17
2022-08-03T07:55:06.939Z,18
2022-08-03T07:56:12.449Z,18
2022-08-03T07:57:14.176Z,18
2022-08-03T07:58:24.120Z,18
2022-08-03T07:59:25.984Z,18
2022-08-03T08:00:27.253Z,19
2022-08-03T08:01:28.600Z,18
2022-08-03T08:02:31.402Z,20
2022-08-03T08:03:53.972Z,20
2022-08-03T08:04:56.165Z,19
2022-08-03T08:05:57.750Z,20
2022-08-03T08:06:59.892Z,19
2022-08-03T08:08:01.649Z,19
2022-08-03T08:09:03.801Z,18
2022-08-03T08:10:05.046Z,18
2022-08-03T08:11:06.895Z,17
2022-08-03T08:12:16.884Z,15
2022-08-03T08:13:19.980Z,17
2022-08-03T08:14:21.047Z,16
2022-08-03T08:15:22.403Z,17
2022-08-03T08:16:23.391Z,18
2022-08-03T08:17:24.677Z,18
2022-08-03T08:18:25.663Z,19
2022-08-03T08:19:34.721Z,19
2022-08-03T08:20:54.058Z,19
2022-08-03T08:22:03.340Z,20
2022-08-03T08:23:57.203Z,19
2022-08-03T08:25:01.650Z,18
2022-08-03T08:26:02.746Z,19
2022-08-03T08:27:04.287Z,18
2022-08-03T08:28:34.068Z,18
2022-08-03T08:29:52.606Z,19
2022-08-03T08:31:16.908Z,19
2022-08-03T08:32:19.921Z,19
2022-08-03T08:33:25.801Z,20
2022-08-03T08:35:05.921Z,20
2022-08-03T08:36:14.885Z,18
2022-08-03T08:37:17.350Z,19
2022-08-03T08:38:18.908Z,18
2022-08-03T08:39:21.270Z,16
2022-08-03T08:40:28.216Z,17
2022-08-03T08:41:33.072Z,16
2022-08-03T08:42:35.136Z,16
2022-08-03T08:43:37.203Z,17
2022-08-03T08:44:39.319Z,17
2022-08-03T08:45:41.473Z,17
2022-08-03T08:46:44.289Z,18
2022-08-03T08:47:59.720Z,17
2022-08-03T08:49:10.430Z,18
2022-08-03T08:50:28.930Z,18
2022-08-03T08:52:02.247Z,17
2022-08-03T08:53:04.614Z,16
2022-08-03T08:54:22.028Z,16
2022-08-03T08:55:23.876Z,16
2022-08-03T08:56:25.398Z,17
2022-08-03T08:57:44.208Z,19
2022-08-03T08:58:46.728Z,18
2022-08-03T08:59:57.306Z,17
2022-08-03T09:01:04.284Z,16
2022-08-03T09:02:06.179Z,17
2022-08-03T09:03:08.264Z,17
2022-08-03T09:04:12.982Z,18
2022-08-03T09:05:15.047Z,18
2022-08-03T09:06:16.870Z,18
2022-08-03T09:07:21.138Z,18
2022-08-03T09:08:23.342Z,17
2022-08-03T09:10:14.354Z,16
2022-08-03T09:11:16.844Z,15
2022-08-03T09:12:52.410Z,16
2022-08-03T09:13:53.764Z,14
2022-08-03T09:15:17.771Z,14
2022-08-03T09:16:18.776Z,14
2022-08-03T09:17:21.858Z,15
2022-08-03T09:18:33.766Z,17
2022-08-03T09:19:35.389Z,17
2022-08-03T09:20:37.203Z,17
2022-08-03T09:21:39.285Z,15
2022-08-03T09:22:40.607Z,13
2022-08-03T09:24:05.099Z,13
2022-08-03T09:25:42.293Z,14
2022-08-03T09:26:44.109Z,15
2022-08-03T09:27:45.646Z,16
2022-08-03T09:29:13.069Z,16
2022-08-03T09:30:35.813Z,16
2022-08-03T09:31:37.371Z,17
2022-08-03T09:32:38.921Z,17
2022-08-03T09:33:40.214Z,16
2022-08-03T09:34:41.458Z,16
2022-08-03T09:35:59.181Z,16
2022-08-03T09:37:00.460Z,16
2022-08-03T09:38:14.634Z,16
2022-08-03T09:39:16.808Z,17
2022-08-03T09:40:18.905Z,15
2022-08-03T09:41:20.627Z,14
2022-08-03T09:42:24.553Z,13
2022-08-03T09:43:25.865Z,11
2022-08-03T09:44:27.500Z,11
2022-08-03T09:45:29.303Z,12
2022-08-03T09:46:32.779Z,12
2022-08-03T09:47:34.388Z,12
2022-08-03T09:48:35.901Z,12
2022-08-03T09:49:37.050Z,13
2022-08-03T09:51:32.668Z,13
2022-08-03T09:54:00.765Z,13
2022-08-03T09:55:02.543Z,13
2022-08-03T09:56:37.851Z,12
2022-08-03T09:57:45.041Z,12
2022-08-03T09:58:49.208Z,12
2022-08-03T09:59:50.414Z,11
2022-08-03T10:01:03.584Z,13
2022-08-03T10:02:07.250Z,13
2022-08-03T10:03:09.068Z,14
2022-08-03T10:04:12.377Z,15
2022-08-03T10:05:20.632Z,14
2022-08-03T10:06:29.353Z,14
2022-08-03T10:07:31.691Z,12
2022-08-03T10:08:33.787Z,12
2022-08-03T10:09:35.333Z,13
2022-08-03T10:10:36.620Z,13
2022-08-03T10:11:45.499Z,14
2022-08-03T10:12:50.761Z,14
2022-08-03T10:14:02.246Z,14
2022-08-03T10:15:03.278Z,15
2022-08-03T10:16:27.075Z,17
2022-08-03T10:17:28.424Z,20
2022-08-03T10:18:29.684Z,21
2022-08-03T10:19:31.275Z,22
2022-08-03T10:20:33.065Z,20
2022-08-03T10:21:35.473Z,18
2022-08-03T10:22:37.387Z,18
2022-08-03T10:23:38.689Z,19
2022-08-03T10:24:41.077Z,20
2022-08-03T10:25:42.641Z,20
2022-08-03T10:26:50.596Z,20
2022-08-03T10:27:52.184Z,18
2022-08-03T10:28:53.978Z,18
2022-08-03T10:29:55.539Z,19
2022-08-03T10:30:58.161Z,20
2022-08-03T10:32:00.527Z,21
2022-08-03T10:33:02.896Z,21
2022-08-03T10:35:20.713Z,21
2022-08-03T10:36:23.811Z,22
2022-08-03T10:37:25.093Z,23
2022-08-03T10:38:26.889Z,25
2022-08-03T10:39:28.936Z,27
2022-08-03T10:40:55.846Z,27
2022-08-03T10:42:03.478Z,27
2022-08-03T10:43:18.281Z,27
2022-08-03T10:44:20.353Z,28
2022-08-03T10:45:21.935Z,29
2022-08-03T10:46:23.894Z,31
2022-08-03T10:47:25.652Z,33
2022-08-03T10:48:27.203Z,36
2022-08-03T10:49:36.354Z,35
2022-08-03T10:50:38.509Z,33
2022-08-03T10:51:43.029Z,31
2022-08-03T10:52:50.609Z,27
2022-08-03T10:53:56.319Z,24
2022-08-03T10:55:11.484Z,25
2022-08-03T10:56:41.605Z,26
2022-08-03T10:57:59.690Z,26
2022-08-03T10:59:09.742Z,28
2022-08-03T11:00:12.753Z,27
2022-08-03T11:01:15.910Z,25
2022-08-03T11:02:18.081Z,25
2022-08-03T11:03:20.499Z,26
2022-08-03T11:04:22.576Z,26
2022-08-03T11:05:24.958Z,26
2022-08-03T11:06:38.389Z,26
2022-08-03T11:07:41.020Z,25
2022-08-03T11:08:42.845Z,24
2022-08-03T11:09:45.189Z,26
2022-08-03T11:10:46.454Z,31
2022-08-03T11:11:48.729Z,33
2022-08-03T11:12:55.423Z,33
2022-08-03T11:14:00.727Z,31
2022-08-03T11:15:01.763Z,26
2022-08-03T11:16:17.251Z,29
2022-08-03T11:17:23.327Z,33
2022-08-03T11:18:27.805Z,35
2022-08-03T11:19:29.324Z,34
2022-08-03T11:20:33.069Z,29
2022-08-03T11:21:52.037Z,25
2022-08-03T11:22:54.101Z,25
2022-08-03T11:24:07.393Z,25
2022-08-03T11:25:55.416Z,24
2022-08-03T11:26:57.261Z,22
2022-08-03T11:27:58.551Z,19
2022-08-03T11:28:59.535Z,17
2022-08-03T11:30:00.924Z,16
2022-08-03T11:31:02.464Z,16
2022-08-03T11:32:03.747Z,16
2022-08-03T11:33:06.114Z,16
2022-08-03T11:34:08.736Z,16
2022-08-03T11:35:10.325Z,16
2022-08-03T11:36:12.199Z,16
2022-08-03T11:37:34.168Z,16
2022-08-03T11:38:36.289Z,16
2022-08-03T11:39:37.526Z,16
2022-08-03T11:40:38.786Z,15
2022-08-03T11:41:45.698Z,15
2022-08-03T11:42:47.230Z,14
2022-08-03T11:43:52.192Z,15
2022-08-03T11:44:54.566Z,15
2022-08-03T11:45:56.143Z,14
2022-08-03T11:46:58.219Z,13
2022-08-03T11:48:00.859Z,13
2022-08-03T11:49:11.293Z,13
2022-08-03T11:50:13.332Z,13
2022-08-03T11:51:14.362Z,14
2022-08-03T11:52:15.937Z,14
2022-08-03T11:53:18.326Z,15
2022-08-03T11:54:19.659Z,15
2022-08-03T11:55:21.085Z,16
2022-08-03T11:56:23.142Z,16
2022-08-03T11:59:22.602Z,15
2022-08-03T12:00:26.487Z,15
2022-08-03T12:01:28.242Z,14
2022-08-03T12:02:30.410Z,14
2022-08-03T12:03:35.020Z,14
2022-08-03T12:04:37.685Z,14
2022-08-03T12:05:39.515Z,14
2022-08-03T12:06:47.620Z,14
2022-08-03T12:08:07.378Z,14
2022-08-03T12:09:15.949Z,14
2022-08-03T12:10:21.904Z,14
2022-08-03T12:11:23.701Z,14
2022-08-03T12:12:26.898Z,14
2022-08-03T12:14:52.650Z,14
2022-08-03T12:15:54.961Z,14
2022-08-03T12:16:56.506Z,13
2022-08-03T12:17:59.078Z,13
2022-08-03T12:19:00.762Z,13
2022-08-03T12:20:02.729Z,13
2022-08-03T12:21:04.336Z,13
2022-08-03T12:22:05.891Z,13
2022-08-03T12:23:07.412Z,13
2022-08-03T12:24:09.539Z,13
2022-08-03T12:25:11.898Z,14
2022-08-03T12:26:13.494Z,14
2022-08-03T12:27:22.471Z,14
2022-08-03T12:28:39.636Z,13
2022-08-03T12:29:59.923Z,13
2022-08-03T12:31:02.048Z,13
2022-08-03T12:32:03.968Z,13
2022-08-03T12:33:05.274Z,13
2022-08-03T12:34:06.577Z,12
2022-08-03T12:35:07.574Z,12
2022-08-03T12:36:09.501Z,12
2022-08-03T12:37:29.131Z,13
2022-08-03T12:38:36.490Z,13
2022-08-03T12:40:10.850Z,13
2022-08-03T12:41:27.459Z,13
2022-08-03T12:42:29.016Z,13
2022-08-03T12:43:40.114Z,13
2022-08-03T12:44:41.661Z,12
2022-08-03T12:45:42.926Z,13
2022-08-03T12:46:48.705Z,13
2022-08-03T12:47:50.287Z,12
2022-08-03T12:48:51.328Z,12
2022-08-03T12:49:52.605Z,11
2022-08-03T12:50:54.420Z,11
2022-08-03T12:51:56.213Z,11
2022-08-03T12:52:58.264Z,10
2022-08-03T12:54:00.372Z,11
2022-08-03T12:55:02.456Z,12
2022-08-03T12:56:07.019Z,13
2022-08-03T12:57:08.538Z,15
2022-08-03T12:58:09.597Z,14
2022-08-03T12:59:10.673Z,13
2022-08-03T13:00:32.338Z,12
2022-08-03T13:01:35.028Z,11
2022-08-03T13:03:43.304Z,12
2022-08-03T13:04:54.511Z,12
2022-08-03T13:05:56.026Z,13
2022-08-03T13:07:04.083Z,13
2022-08-03T13:08:15.459Z,11
2022-08-03T13:09:21.886Z,11
2022-08-03T13:10:23.746Z,11
2022-08-03T13:12:03.214Z,11
2022-08-03T13:13:09.285Z,12
2022-08-03T13:14:20.994Z,12
2022-08-03T13:15:24.862Z,12
2022-08-03T13:16:48.476Z,12
2022-08-03T13:17:50.463Z,12
2022-08-03T13:18:51.727Z,12
2022-08-03T13:19:52.725Z,12
2022-08-03T13:20:54.074Z,13
2022-08-03T13:22:08.188Z,12
2022-08-03T13:23:23.062Z,13
2022-08-03T13:24:24.347Z,13
2022-08-03T13:25:26.131Z,13
2022-08-03T13:26:27.687Z,12
2022-08-03T13:28:11.185Z,12
2022-08-03T13:29:17.860Z,12
2022-08-03T13:30:31.052Z,12
2022-08-03T13:31:51.722Z,12
2022-08-03T13:32:53.195Z,12
2022-08-03T13:33:54.184Z,13
2022-08-03T13:34:56.010Z,14
2022-08-03T13:36:00.876Z,14
2022-08-03T13:37:10.952Z,15
2022-08-03T13:38:21.931Z,14
2022-08-03T13:40:00.053Z,13
2022-08-03T13:41:07.051Z,12
2022-08-03T13:42:08.188Z,12
2022-08-03T13:43:09.213Z,12
2022-08-03T13:44:30.698Z,12
2022-08-03T13:45:32.299Z,12
2022-08-03T13:46:34.120Z,12
2022-08-03T13:47:35.971Z,12
2022-08-03T13:48:38.921Z,12
2022-08-03T13:49:40.335Z,12
2022-08-03T13:50:43.602Z,12
2022-08-03T13:51:45.249Z,13
2022-08-03T13:52:47.060Z,13
2022-08-03T13:53:48.860Z,13
2022-08-03T13:54:51.019Z,13
2022-08-03T13:55:52.726Z,12
2022-08-03T13:58:07.411Z,12
2022-08-03T13:59:20.362Z,12
2022-08-03T14:00:30.154Z,12
2022-08-03T14:01:56.306Z,11
2022-08-03T14:03:14.624Z,12
2022-08-03T14:04:23.175Z,19
2022-08-03T14:05:25.279Z,24
2022-08-03T14:06:27.149Z,26
2022-08-03T14:07:31.231Z,29
2022-08-03T14:08:32.751Z,25
2022-08-03T14:09:34.848Z,22
2022-08-03T14:10:36.742Z,22
2022-08-03T14:12:09.214Z,19
2022-08-03T14:13:21.723Z,16
2022-08-03T14:14:30.726Z,15
2022-08-03T14:15:39.046Z,14
2022-08-03T14:16:41.011Z,15
2022-08-03T14:17:50.502Z,15
2022-08-03T14:18:53.083Z,14
2022-08-03T14:19:58.958Z,14
2022-08-03T14:22:07.311Z,14
2022-08-03T14:23:08.312Z,13
2022-08-03T14:24:10.463Z,15
2022-08-03T14:25:17.519Z,15
2022-08-03T14:26:26.568Z,14
2022-08-03T14:27:28.394Z,15
2022-08-03T14:28:30.364Z,14
2022-08-03T14:29:31.908Z,13
2022-08-03T14:30:34.274Z,13
2022-08-03T14:32:13.868Z,14
2022-08-03T14:33:16.194Z,14
2022-08-03T14:34:18.327Z,14
2022-08-03T14:35:20.167Z,14
2022-08-03T14:36:21.672Z,13
2022-08-03T14:37:24.906Z,12
2022-08-03T14:38:26.476Z,12
2022-08-03T14:40:01.618Z,13
2022-08-03T14:41:03.303Z,13
2022-08-03T14:42:04.572Z,14
2022-08-03T14:43:05.846Z,14
2022-08-03T14:44:06.845Z,14
2022-08-03T14:45:21.214Z,14
2022-08-03T14:46:22.671Z,14
2022-08-03T14:47:23.890Z,14
2022-08-03T14:50:46.968Z,13
2022-08-03T14:51:54.866Z,12
2022-08-03T14:52:56.414Z,12
2022-08-03T14:53:58.760Z,13
2022-08-03T14:55:01.136Z,13
2022-08-03T14:56:11.483Z,13
2022-08-03T14:57:13.923Z,13
2022-08-03T14:58:22.833Z,13
2022-08-03T14:59:25.277Z,13
2022-08-03T15:00:28.531Z,13
2022-08-03T15:02:18.557Z,13
2022-08-03T15:03:26.339Z,13
2022-08-03T15:04:27.605Z,13
2022-08-03T15:05:29.163Z,13
2022-08-03T15:06:30.675Z,13
2022-08-03T15:07:31.684Z,13
2022-08-03T15:08:32.689Z,12
2022-08-03T15:09:34.768Z,13
2022-08-03T15:10:46.107Z,13
2022-08-03T15:12:02.391Z,14
2022-08-03T15:13:15.914Z,14
2022-08-03T15:14:35.481Z,14
2022-08-03T15:15:39.867Z,14
2022-08-03T15:16:50.423Z,14
2022-08-03T15:18:01.221Z,13
2022-08-03T15:21:48.358Z,14
2022-08-03T15:22:57.444Z,13
2022-08-03T15:23:58.772Z,12
2022-08-03T15:25:00.317Z,11
2022-08-03T15:26:41.923Z,12
2022-08-03T15:28:05.117Z,14
2022-08-03T15:29:07.370Z,15
2022-08-03T15:31:05.403Z,16
2022-08-03T15:32:10.560Z,15
2022-08-03T15:33:12.235Z,14
2022-08-03T15:34:15.836Z,15
2022-08-03T15:35:17.127Z,14
2022-08-03T15:36:18.916Z,13
2022-08-03T15:37:26.083Z,13
2022-08-03T15:38:35.219Z,13
2022-08-03T15:40:01.777Z,13
2022-08-03T15:41:03.597Z,14
2022-08-03T15:42:09.430Z,14
2022-08-03T15:43:13.757Z,13
2022-08-03T15:44:15.016Z,12
2022-08-03T15:45:20.665Z,12
2022-08-03T15:46:30.916Z,12
2022-08-03T15:47:31.887Z,12
2022-08-03T15:48:33.426Z,11
2022-08-03T15:49:35.704Z,11
2022-08-03T15:50:37.538Z,11
2022-08-03T15:51:38.888Z,11
2022-08-03T15:52:41.528Z,11
2022-08-03T15:53:45.407Z,11
2022-08-03T15:54:46.963Z,11
2022-08-03T15:55:48.819Z,11